Web Počasí Slunečno.cz™ (Podmínky, ePrivacy) používá cookies a personalizace pro reklamní účely. Pohybem po stránce vyjadřujete souhlas. Odejít

Aktuální počasí v Česku a ve světě - METAR

Seznam meteostanic umístěných nejčasteji na letišti v ČR a ve světě

Vyhledat místa podle abecedy:
A B C D E F G H I J K L M N O P Q R S T U V W X Y Z

Filtrovat:

ID stanice:
a/nebo
Název místa (fulltext):
 
Místo (ID)Naposledy načteno 
Verona (LIPX) 19.10.2021 05:50 UTC Zobrazit METAR
LIPX 190550Z 30002KT 5000 BR NSC 06/06 Q1028
Vienna (LOWW) 19.10.2021 05:50 UTC Zobrazit METAR
LOWW 190550Z 14004KT CAVOK 04/03 Q1027 NOSIG
Vientiane (VLVT) 19.10.2021 06:00 UTC Zobrazit METAR
VLVT 190600Z 14006KT 9999 SCT016 BKN050 31/23 Q1014 NOSIG
Vieuxfort (TLPL) 19.10.2021 00:00 UTC Zobrazit METAR
TLPL 190000Z 03005KT 9999 FEW024 27/25 Q1012 NOSIG
Vilnius (EYVI) 19.10.2021 05:50 UTC Zobrazit METAR
EYVI 190550Z VRB02KT 8000 NSC M02/M02 Q1024 NOSIG
Vitebsk (UMII) Zatím nenačteno  
Volgograd (URWW) Zatím nenačteno  
Voronezh (UUOO) Zatím nenačteno  
Wake Island (PWAK) 19.10.2021 05:58 UTC Zobrazit METAR
PWAK 190558Z AUTO 06006G26KT 9999 -RA FEW028 BKN044 BKN055 26/21 A2992 RMK AO2 PK WND 06028/50 RAB56 SLP138 P0000 60000 T02610209 10309 20261 53003 $
Warsaw (EPWA) 19.10.2021 06:00 UTC Zobrazit METAR
EPWA 190600Z 13005KT 5000 -RA BKN003 08/07 Q1025 TEMPO 4000 BR
Washington (KIAD) 19.10.2021 05:52 UTC Zobrazit METAR
KIAD 190552Z 28003KT 10SM CLR 06/03 A3011 RMK AO2 SLP196 T00610033 10156 20050 51009
Wellington (NZWN) 19.10.2021 05:00 UTC Zobrazit METAR
NZWN 190500Z AUTO 01014KT 330V040 9999 FEW026/// BKN032/// 14/09 Q1018 NOSIG
Windhoek (FYWH) 19.10.2021 06:00 UTC Zobrazit METAR
FYWH 190600Z 14004KT CAVOK 18/M15 Q1024 NOSIG
Wroclaw (EPWR) 19.10.2021 06:00 UTC Zobrazit METAR
EPWR 190600Z 18002KT CAVOK 05/04 Q1024
Yamoussoukro (DIYO) 19.10.2021 06:00 UTC Zobrazit METAR
DIYO 190600Z 22006KT 8000 BKN010 25/23 Q1011 NOSIG
Yangon (VYYY) 12.10.2021 12:00 UTC Zobrazit METAR
VYYY 121200Z 15002KT 7000 SCT025 SCT110 30/27 Q1002
Yaounde (FKYS) 18.10.2021 04:00 UTC Zobrazit METAR
FKYS 180400Z VRB02KT 9999 FEW003 BKN006 21/21 Q1015 RETS NOSIG
Yerevan (UGEE) Zatím nenačteno  
Zadar (LDZD) 19.10.2021 06:00 UTC Zobrazit METAR
LDZD 190600Z VRB02KT CAVOK 06/05 Q1027 NOSIG
Zagreb (LDZA) 19.10.2021 02:00 UTC Zobrazit METAR
LDZA 190200Z 23002KT 2000 BCFG NSC 03/02 Q1029 TEMPO 0500 FG
Zaragoza (LEZG) 19.10.2021 06:00 UTC Zobrazit METAR
LEZG 190600Z 14004KT 100V190 CAVOK 13/10 Q1026
Zhezkazgan (UAKD) Zatím nenačteno  
Zurich (LSZH) 19.10.2021 05:50 UTC Zobrazit METAR
LSZH 190550Z 17002KT 9999 VCFG NSC 07/06 Q1027 NOSIG
Předchozí 1 ... 7 8 9
Reklama

Reklama


Newslettter

Počasí na Váš email

Každý den Vám pošleme předpověď
Emaily chodí ráno a bez reklamy



Odhlásit newsletter


Další české internetové stránky o počasí najdete v katalogu TOPlist - weby o počasí nebo vyhledejte na internetu, co jste tu na Počasí Slunečno Slunečnu zatím nenašli:
Reklama